Terminal Aerodrome Forecast
Issued by NWS

Current Version | Previous Version | Text Only | Print | Product List | Glossary On
Versions: 1 2 3 4 5 6 7 8 9 10 11 12 13 14
000
FTUS41 KBTV 141100
TAFSLK
TAF
KSLK 141131Z 1412/1512 22008KT 4SM BR BKN035
     FM141300 22008KT P6SM SCT045
     FM142300 24004KT P6SM BKN080
     FM150700 15002KT P6SM OVC050=

USA.gov is the U.S. government's official web portal to all federal, state and local government web resources and services.